메인 페이지
METAR-TAF:

METAR-TAF

공항 :

오데사, 우크라이나

위도: 46-26N, 경도: 030-46E, 고도: 42m

현재 날씨관측

예보는 13분 전, 09:30시(UTC)에 발표되었습니다.
17kt동북동풍과 동남동풍을 오가는
온도 5°C
습도 75%
기압 1030 hPa
시정 10km 이상
고도 1700ft 상공 구름 보통
고도 2300ft 상공 흐림

METAR: UKOO 210930Z 09009MPS 060V120 9999 SCT017 OVC023 05/01 Q1030 R16/090060 NOSIG

시각: 11:43 (09:43 UTC)

예보

예보는 4 시간 36분 전, 05:07시(UTC)에 발표되었습니다.
예보 대상 시간: 21일 06시부터 22일 06시까지 (UTC)
17kt, 순간 최대 풍속 33kt
시정: 6000m
고도 400ft 상공 구름 보통
고도 700ft 상공 구름 많음
고도 1500ft 상공 구름 보통, 적란운.
일시적
21일 15시부터 21일 24시까지 (UTC)
시정: 2100m
약한소나기, 박무
일시적
22일 00시부터 22일 06시까지 (UTC)
동북동14kt, 순간 최대 풍속 27kt
시정: 2100m
박무

TAF: UKOO 210507Z 2106/2206 08009G17MPS 6000 SCT004 BKN007 SCT015CB TX09/2112Z TN02/2204Z TEMPO 2115/2124 2100 -SHRA BR TEMPO 2200/2206 06007G14MPS 2100 BR

4,000개 이상의 공항 관측 자료 및 예보 (METAR 및 TAF 보고).

지도상에서 검색 가능한 기상관측소가 노란 점과 빨간 점으로 표시되어 있습니다.

기상관측소 명을 보려면 표시 위로 마우스를 이동하세요.

날씨 관측과 예보를 보려면 클릭하세요.

지도 변경 : 확대하려면 엑스 표시가 있는 녹색 버튼, 축소하려면 빼기 표시가 있는 녹색 버튼, 다음 페이지의 지도를 보려면 녹색 화살표를 클릭하세요.


METAR-TAF: